createdAt,value
2022-09-16T00:00:55.413Z,99385.28
2022-09-16T00:01:58.573Z,99380.00
2022-09-16T00:03:01.962Z,99383.53
2022-09-16T00:04:04.868Z,99385.28
2022-09-16T00:05:08.683Z,99380.03
2022-09-16T00:06:25.874Z,99384.75
2022-09-16T00:07:30.421Z,99377.00
2022-09-16T00:08:33.532Z,99391.09
2022-09-16T00:09:38.418Z,99382.34
2022-09-16T00:10:43.019Z,99388.47
2022-09-16T00:11:45.863Z,99385.00
2022-09-16T00:12:50.075Z,99389.38
2022-09-16T00:13:53.249Z,99385.88
2022-09-16T00:14:56.414Z,99383.38
2022-09-16T00:15:59.312Z,99380.78
2022-09-16T00:17:02.384Z,99387.88
2022-09-16T00:18:05.452Z,99384.38
2022-09-16T00:19:09.537Z,99386.19
2022-09-16T00:20:12.529Z,99392.38
2022-09-16T00:21:15.567Z,99388.94
2022-09-16T00:22:19.191Z,99389.06
2022-09-16T00:23:22.158Z,99391.78
2022-09-16T00:24:25.117Z,99396.22
2022-09-16T00:25:28.034Z,99400.75
2022-09-16T00:26:31.562Z,99392.88
2022-09-16T00:27:34.727Z,99391.19
2022-09-16T00:28:37.837Z,99398.25
2022-09-16T00:29:40.993Z,99393.03
2022-09-16T00:30:43.949Z,99394.88
2022-09-16T00:31:47.110Z,99397.53
2022-09-16T00:32:50.088Z,99397.56
2022-09-16T00:33:52.958Z,99401.19
2022-09-16T00:34:55.832Z,99402.94
2022-09-16T00:36:15.210Z,99399.53
2022-09-16T00:37:18.059Z,99404.78
2022-09-16T00:38:21.172Z,99403.06
2022-09-16T00:39:24.138Z,99407.44
2022-09-16T00:40:27.276Z,99409.19
2022-09-16T00:41:34.844Z,99408.19
2022-09-16T00:42:41.266Z,99408.16
2022-09-16T00:43:51.197Z,99407.16
2022-09-16T00:45:15.837Z,99408.84
2022-09-16T00:46:39.409Z,99409.66
2022-09-16T00:47:53.274Z,99406.16
2022-09-16T00:49:01.022Z,99405.94
2022-09-16T00:50:13.030Z,99396.16
2022-09-16T00:51:17.142Z,99400.38
2022-09-16T00:52:20.442Z,99400.41
2022-09-16T00:53:34.448Z,99394.19
2022-09-16T00:54:39.821Z,99401.19
2022-09-16T00:55:44.953Z,99396.72
2022-09-16T00:56:54.755Z,99402.84
2022-09-16T00:58:08.894Z,99402.78
2022-09-16T00:59:20.382Z,99403.72
2022-09-16T01:00:23.273Z,99407.31
2022-09-16T01:01:26.546Z,99406.53
2022-09-16T01:02:29.625Z,99413.59
2022-09-16T01:03:44.924Z,99413.66
2022-09-16T01:05:08.388Z,99417.13
2022-09-16T01:06:14.080Z,99410.97
2022-09-16T01:07:24.644Z,99410.03
2022-09-16T01:08:27.812Z,99410.81
2022-09-16T01:09:31.775Z,99409.91
2022-09-16T01:10:34.838Z,99413.28
2022-09-16T01:11:37.892Z,99417.31
2022-09-16T01:12:46.532Z,99413.78
2022-09-16T01:13:50.517Z,99419.94
2022-09-16T01:14:53.450Z,99411.13
2022-09-16T01:16:11.217Z,99419.81
2022-09-16T01:17:50.690Z,99415.38
2022-09-16T01:18:56.215Z,99420.69
2022-09-16T01:20:29.923Z,99414.47
2022-09-16T01:21:47.803Z,99415.50
2022-09-16T01:23:17.927Z,99411.72
2022-09-16T01:24:43.643Z,99415.34
2022-09-16T01:26:30.068Z,99414.34
2022-09-16T01:28:01.336Z,99413.53
2022-09-16T01:29:53.369Z,99419.56
2022-09-16T01:31:36.585Z,99413.28
2022-09-16T01:33:20.660Z,99415.81
2022-09-16T01:34:44.363Z,99413.19
2022-09-16T01:36:00.693Z,99413.91
2022-09-16T01:37:40.532Z,99416.50
2022-09-16T01:39:08.171Z,99419.94
2022-09-16T01:40:46.216Z,99414.66
2022-09-16T01:42:37.080Z,99419.84
2022-09-16T01:44:27.072Z,99417.13
2022-09-16T01:45:50.701Z,99418.81
2022-09-16T01:47:21.979Z,99410.00
2022-09-16T01:48:55.070Z,99415.22
2022-09-16T01:50:18.712Z,99415.25
2022-09-16T01:51:28.746Z,99417.78
2022-09-16T01:53:23.877Z,99421.22
2022-09-16T01:54:32.831Z,99413.34
2022-09-16T01:55:52.444Z,99415.16
2022-09-16T01:57:24.985Z,99423.97
2022-09-16T01:59:00.205Z,99416.84
2022-09-16T02:00:11.389Z,99425.66
2022-09-16T02:01:28.183Z,99428.25
2022-09-16T02:02:54.672Z,99429.16
2022-09-16T02:04:05.909Z,99424.72
2022-09-16T02:05:37.334Z,99420.91
2022-09-16T02:06:43.957Z,99424.38
2022-09-16T02:07:55.827Z,99423.44
2022-09-16T02:09:18.922Z,99429.63
2022-09-16T02:10:44.914Z,99426.06
2022-09-16T02:11:52.177Z,99422.63
2022-09-16T02:13:11.615Z,99424.38
2022-09-16T02:14:30.302Z,99419.03
2022-09-16T02:15:34.367Z,99424.28
2022-09-16T02:16:49.175Z,99424.19
2022-09-16T02:18:09.671Z,99422.38
2022-09-16T02:19:24.369Z,99425.03
2022-09-16T02:20:31.814Z,99421.63
2022-09-16T02:21:45.431Z,99422.41
2022-09-16T02:22:56.271Z,99424.28
2022-09-16T02:24:05.660Z,99421.53
2022-09-16T02:25:11.659Z,99417.06
2022-09-16T02:26:21.083Z,99417.06
2022-09-16T02:27:24.437Z,99418.16
2022-09-16T02:28:38.990Z,99411.97
2022-09-16T02:29:56.347Z,99410.28
2022-09-16T02:31:06.156Z,99410.22
2022-09-16T02:32:11.622Z,99413.72
2022-09-16T02:33:16.951Z,99410.22
2022-09-16T02:34:31.298Z,99420.81
2022-09-16T02:35:38.589Z,99419.09
2022-09-16T02:36:45.793Z,99415.56
2022-09-16T02:38:01.790Z,99423.44
2022-09-16T02:39:13.894Z,99425.22
2022-09-16T02:40:32.425Z,99432.00
2022-09-16T02:41:38.927Z,99423.38
2022-09-16T02:42:41.883Z,99426.06
2022-09-16T02:43:46.023Z,99429.63
2022-09-16T02:44:49.198Z,99418.09
2022-09-16T02:46:06.969Z,99428.66
2022-09-16T02:47:17.523Z,99423.53
2022-09-16T02:48:40.463Z,99423.72
2022-09-16T02:50:43.534Z,99423.72
2022-09-16T02:52:15.624Z,99429.06
2022-09-16T02:53:38.205Z,99424.81
2022-09-16T02:55:21.639Z,99427.78
2022-09-16T02:56:39.418Z,99426.16
2022-09-16T02:57:42.813Z,99431.59
2022-09-16T02:58:45.824Z,99430.22
2022-09-16T02:59:49.556Z,99427.78
2022-09-16T03:00:55.743Z,99426.16
2022-09-16T03:02:00.481Z,99427.19
2022-09-16T03:03:03.953Z,99428.19
2022-09-16T03:04:08.448Z,99424.75
2022-09-16T03:05:11.451Z,99426.59
2022-09-16T03:06:22.963Z,99427.53
2022-09-16T03:07:26.896Z,99425.94
2022-09-16T03:08:30.217Z,99428.53
2022-09-16T03:09:38.190Z,99421.63
2022-09-16T03:10:46.606Z,99420.81
2022-09-16T03:12:05.471Z,99425.22
2022-09-16T03:13:37.517Z,99421.63
2022-09-16T03:15:27.828Z,99426.03
2022-09-16T03:16:47.710Z,99419.91
2022-09-16T03:18:41.488Z,99418.28
2022-09-16T03:19:59.209Z,99426.41
2022-09-16T03:21:21.718Z,99425.44
2022-09-16T03:22:37.796Z,99427.19
2022-09-16T03:24:09.871Z,99425.47
2022-09-16T03:26:02.006Z,99425.44
2022-09-16T03:27:32.550Z,99426.31
2022-09-16T03:29:02.956Z,99427.25
2022-09-16T03:30:09.126Z,99427.16
2022-09-16T03:31:45.713Z,99422.81
2022-09-16T03:32:56.669Z,99433.34
2022-09-16T03:34:11.291Z,99432.50
2022-09-16T03:35:48.904Z,99437.88
2022-09-16T03:37:00.729Z,99437.81
2022-09-16T03:38:05.979Z,99436.00
2022-09-16T03:39:10.827Z,99433.44
2022-09-16T03:40:19.262Z,99436.94
2022-09-16T03:41:23.254Z,99440.41
2022-09-16T03:42:26.840Z,99437.75
2022-09-16T03:43:29.649Z,99440.38
2022-09-16T03:44:39.209Z,99445.69
2022-09-16T03:45:43.059Z,99438.66
2022-09-16T03:46:46.121Z,99439.63
2022-09-16T03:47:52.173Z,99440.47
2022-09-16T03:48:56.776Z,99445.84
2022-09-16T03:49:59.811Z,99448.53
2022-09-16T03:51:02.829Z,99433.59
2022-09-16T03:52:07.224Z,99445.88
2022-09-16T03:53:10.268Z,99447.41
2022-09-16T03:54:13.166Z,99449.97
2022-09-16T03:55:17.040Z,99449.97
2022-09-16T03:56:22.333Z,99444.72
2022-09-16T03:57:25.362Z,99450.84
2022-09-16T03:58:28.193Z,99449.97
2022-09-16T03:59:31.582Z,99448.19
2022-09-16T04:00:34.768Z,99455.19
2022-09-16T04:01:37.719Z,99446.47
2022-09-16T04:02:40.825Z,99446.53
2022-09-16T04:03:43.897Z,99448.19
2022-09-16T04:04:46.915Z,99441.16
2022-09-16T04:05:56.504Z,99443.97
2022-09-16T04:06:59.643Z,99457.16
2022-09-16T04:08:02.811Z,99453.78
2022-09-16T04:09:08.222Z,99449.38
2022-09-16T04:10:12.568Z,99454.66
2022-09-16T04:11:15.514Z,99461.91
2022-09-16T04:12:18.498Z,99460.03
2022-09-16T04:13:21.405Z,99455.72
2022-09-16T04:14:24.319Z,99460.06
2022-09-16T04:15:27.275Z,99457.50
2022-09-16T04:16:31.094Z,99466.28
2022-09-16T04:17:34.673Z,99462.78
2022-09-16T04:18:37.841Z,99466.25
2022-09-16T04:19:40.725Z,99461.91
2022-09-16T04:20:43.604Z,99459.31
2022-09-16T04:21:46.772Z,99460.13
2022-09-16T04:22:49.894Z,99459.25
2022-09-16T04:23:54.666Z,99459.28
2022-09-16T04:24:58.163Z,99462.75
2022-09-16T04:26:03.283Z,99465.34
2022-09-16T04:27:06.477Z,99470.66
2022-09-16T04:28:09.538Z,99470.69
2022-09-16T04:29:12.845Z,99466.28
2022-09-16T04:30:16.015Z,99468.94
2022-09-16T04:31:19.183Z,99462.72
2022-09-16T04:32:22.153Z,99469.66
2022-09-16T04:33:32.651Z,99462.69
2022-09-16T04:34:35.614Z,99460.91
2022-09-16T04:35:38.377Z,99462.66
2022-09-16T04:36:41.296Z,99458.28
2022-09-16T04:37:44.498Z,99470.56
2022-09-16T04:38:49.460Z,99462.66
2022-09-16T04:39:53.518Z,99460.81
2022-09-16T04:41:09.613Z,99465.06
2022-09-16T04:42:12.661Z,99458.91
2022-09-16T04:43:15.601Z,99461.53
2022-09-16T04:44:18.602Z,99458.09
2022-09-16T04:45:21.443Z,99458.09
2022-09-16T04:46:27.248Z,99464.19
2022-09-16T04:47:30.432Z,99464.13
2022-09-16T04:48:34.743Z,99458.84
2022-09-16T04:49:37.787Z,99457.09
2022-09-16T04:50:40.834Z,99459.72
2022-09-16T04:51:43.678Z,99459.75
2022-09-16T04:52:46.793Z,99470.25
2022-09-16T04:53:50.517Z,99461.41
2022-09-16T04:54:53.550Z,99471.03
2022-09-16T04:56:15.615Z,99468.25
2022-09-16T04:57:18.491Z,99474.41
2022-09-16T04:58:21.847Z,99470.78
2022-09-16T04:59:24.742Z,99470.84
2022-09-16T05:00:27.872Z,99476.91
2022-09-16T05:01:37.731Z,99467.22
2022-09-16T05:02:40.813Z,99468.97
2022-09-16T05:03:47.393Z,99474.13
2022-09-16T05:04:50.491Z,99473.13
2022-09-16T05:05:53.490Z,99470.44
2022-09-16T05:06:56.745Z,99474.78
2022-09-16T05:07:59.693Z,99475.44
2022-09-16T05:09:04.296Z,99477.94
2022-09-16T05:10:07.880Z,99474.31
2022-09-16T05:11:14.593Z,99471.41
2022-09-16T05:12:17.621Z,99472.28
2022-09-16T05:13:21.437Z,99473.72
2022-09-16T05:14:24.525Z,99469.16
2022-09-16T05:15:27.534Z,99476.97
2022-09-16T05:16:32.949Z,99475.94
2022-09-16T05:17:51.958Z,99472.38
2022-09-16T05:18:58.199Z,99467.25
2022-09-16T05:20:01.214Z,99470.72
2022-09-16T05:21:07.951Z,99471.53
2022-09-16T05:22:11.152Z,99476.00
2022-09-16T05:23:14.151Z,99466.34
2022-09-16T05:24:17.287Z,99465.34
2022-09-16T05:25:20.221Z,99466.22
2022-09-16T05:26:26.686Z,99460.16
2022-09-16T05:27:32.105Z,99461.78
2022-09-16T05:28:36.342Z,99463.34
2022-09-16T05:29:39.215Z,99456.44
2022-09-16T05:30:42.556Z,99470.19
2022-09-16T05:31:49.341Z,99465.81
2022-09-16T05:32:55.389Z,99468.31
2022-09-16T05:33:59.598Z,99471.69
2022-09-16T05:35:02.428Z,99462.75
2022-09-16T05:36:13.824Z,99471.53
2022-09-16T05:37:20.007Z,99466.94
2022-09-16T05:38:22.766Z,99472.84
2022-09-16T05:39:26.278Z,99470.25
2022-09-16T05:40:29.829Z,99464.94
2022-09-16T05:41:33.230Z,99471.53
2022-09-16T05:42:36.081Z,99470.72
2022-09-16T05:43:39.603Z,99465.81
2022-09-16T05:44:42.566Z,99465.19
2022-09-16T05:45:55.729Z,99461.47
2022-09-16T05:46:58.794Z,99463.66
2022-09-16T05:48:02.329Z,99457.63
2022-09-16T05:49:05.316Z,99461.34
2022-09-16T05:50:08.684Z,99465.63
2022-09-16T05:51:20.667Z,99466.25
2022-09-16T05:52:25.581Z,99466.03
2022-09-16T05:53:30.811Z,99460.44
2022-09-16T05:54:33.623Z,99458.44
2022-09-16T05:55:36.540Z,99460.28
2022-09-16T05:56:40.120Z,99460.75
2022-09-16T05:57:43.021Z,99454.41
2022-09-16T05:58:46.925Z,99453.66
2022-09-16T05:59:49.975Z,99452.03
2022-09-16T06:01:02.164Z,99456.44
2022-09-16T06:02:05.154Z,99455.06
2022-09-16T06:03:08.789Z,99451.41
2022-09-16T06:04:14.978Z,99451.16
2022-09-16T06:05:18.074Z,99458.50
2022-09-16T06:06:39.777Z,99460.13
2022-09-16T06:07:42.627Z,99455.56
2022-09-16T06:08:45.688Z,99455.84
2022-09-16T06:09:48.783Z,99451.59
2022-09-16T06:10:51.667Z,99449.41
2022-09-16T06:12:01.462Z,99451.44
2022-09-16T06:13:05.282Z,99450.38
2022-09-16T06:14:08.703Z,99456.91
2022-09-16T06:15:11.823Z,99455.22
2022-09-16T06:16:14.786Z,99458.56
2022-09-16T06:17:17.922Z,99451.97
2022-09-16T06:18:22.632Z,99448.63
2022-09-16T06:19:25.610Z,99455.25
2022-09-16T06:20:28.790Z,99452.94
2022-09-16T06:21:32.000Z,99455.81
2022-09-16T06:22:35.587Z,99459.00
2022-09-16T06:23:40.328Z,99461.78
2022-09-16T06:24:43.165Z,99452.63
2022-09-16T06:25:46.929Z,99444.94
2022-09-16T06:26:50.119Z,99456.91
2022-09-16T06:27:52.978Z,99453.06
2022-09-16T06:28:56.294Z,99447.63
2022-09-16T06:29:59.236Z,99436.19
2022-09-16T06:31:11.039Z,99443.09
2022-09-16T06:32:14.045Z,99443.59
2022-09-16T06:33:17.036Z,99447.50
2022-09-16T06:34:19.963Z,99450.88
2022-09-16T06:35:22.937Z,99440.34
2022-09-16T06:36:32.554Z,99452.72
2022-09-16T06:37:35.476Z,99443.38
2022-09-16T06:38:39.209Z,99445.59
2022-09-16T06:39:42.727Z,99446.69
2022-09-16T06:40:45.620Z,99447.69
2022-09-16T06:41:49.208Z,99442.81
2022-09-16T06:42:59.977Z,99448.81
2022-09-16T06:44:03.089Z,99447.88
2022-09-16T06:45:07.025Z,99446.16
2022-09-16T06:46:22.964Z,99445.97
2022-09-16T06:47:25.941Z,99434.78
2022-09-16T06:48:32.117Z,99437.91
2022-09-16T06:49:35.232Z,99432.94
2022-09-16T06:50:38.389Z,99437.78
2022-09-16T06:51:41.586Z,99432.31
2022-09-16T06:52:44.972Z,99442.00
2022-09-16T06:53:47.990Z,99438.78
2022-09-16T06:54:51.120Z,99433.31
2022-09-16T06:55:54.492Z,99432.88
2022-09-16T06:56:57.674Z,99430.75
2022-09-16T06:58:00.811Z,99439.00
2022-09-16T06:59:04.219Z,99440.09
2022-09-16T07:00:08.133Z,99437.72
2022-09-16T07:01:14.507Z,99440.94
2022-09-16T07:02:18.397Z,99443.59
2022-09-16T07:03:21.216Z,99449.06
2022-09-16T07:04:24.337Z,99455.09
2022-09-16T07:05:27.581Z,99451.66
2022-09-16T07:06:58.279Z,99454.06
2022-09-16T07:07:53.968Z,99461.19
2022-09-16T07:08:56.972Z,99460.84
2022-09-16T07:09:59.872Z,99464.56
2022-09-16T07:11:24.395Z,99466.56
2022-09-16T07:12:29.034Z,99461.97
2022-09-16T07:13:32.444Z,99455.38
2022-09-16T07:14:35.495Z,99457.25
2022-09-16T07:15:56.262Z,99464.38
2022-09-16T07:17:02.347Z,99460.47
2022-09-16T07:18:05.562Z,99457.19
2022-09-16T07:19:08.538Z,99456.34
2022-09-16T07:20:11.471Z,99466.88
2022-09-16T07:21:19.319Z,99458.09
2022-09-16T07:22:22.186Z,99457.34
2022-09-16T07:23:25.356Z,99465.97
2022-09-16T07:24:28.353Z,99465.69
2022-09-16T07:25:35.714Z,99454.63
2022-09-16T07:26:41.253Z,99459.97
2022-09-16T07:27:44.267Z,99449.59
2022-09-16T07:28:49.408Z,99453.63
2022-09-16T07:29:54.087Z,99456.06
2022-09-16T07:31:01.267Z,99458.84
2022-09-16T07:32:04.331Z,99464.22
2022-09-16T07:33:07.150Z,99450.75
2022-09-16T07:34:12.663Z,99455.78
2022-09-16T07:35:15.986Z,99452.28
2022-09-16T07:36:23.643Z,99471.81
2022-09-16T07:37:28.697Z,99459.25
2022-09-16T07:38:32.395Z,99472.41
2022-09-16T07:39:35.557Z,99457.69
2022-09-16T07:40:40.877Z,99463.88
2022-09-16T07:41:46.579Z,99458.44
2022-09-16T07:42:49.522Z,99472.59
2022-09-16T07:43:55.677Z,99461.78
2022-09-16T07:44:58.525Z,99461.88
2022-09-16T07:46:02.135Z,99468.38
2022-09-16T07:47:05.414Z,99456.06
2022-09-16T07:48:08.210Z,99457.66
2022-09-16T07:49:14.645Z,99463.72
2022-09-16T07:50:17.972Z,99456.09
2022-09-16T07:51:24.529Z,99460.81
2022-09-16T07:52:29.430Z,99468.78
2022-09-16T07:53:33.646Z,99454.38
2022-09-16T07:54:36.725Z,99455.53
2022-09-16T07:55:39.589Z,99460.03
2022-09-16T07:56:44.519Z,99459.69
2022-09-16T07:57:47.341Z,99467.56
2022-09-16T07:58:54.376Z,99455.53
2022-09-16T07:59:57.974Z,99459.00
2022-09-16T08:01:04.837Z,99458.00
2022-09-16T08:02:09.446Z,99453.03
2022-09-16T08:03:12.506Z,99456.09
2022-09-16T08:04:16.371Z,99461.91
2022-09-16T08:05:19.377Z,99463.25
2022-09-16T08:06:27.165Z,99461.44
2022-09-16T08:07:30.204Z,99465.69
2022-09-16T08:08:34.517Z,99452.75
2022-09-16T08:09:45.103Z,99463.44
2022-09-16T08:10:58.588Z,99465.53
2022-09-16T08:12:04.756Z,99470.66
2022-09-16T08:13:08.705Z,99467.84
2022-09-16T08:14:11.556Z,99451.53
2022-09-16T08:15:15.115Z,99467.47
2022-09-16T08:16:21.258Z,99468.97
2022-09-16T08:17:24.276Z,99465.56
2022-09-16T08:18:27.621Z,99456.22
2022-09-16T08:19:30.953Z,99464.72
2022-09-16T08:20:33.790Z,99461.97
2022-09-16T08:21:36.792Z,99457.47
2022-09-16T08:22:39.804Z,99453.44
2022-09-16T08:23:43.636Z,99461.91
2022-09-16T08:24:46.578Z,99466.06
2022-09-16T08:25:58.858Z,99468.47
2022-09-16T08:27:02.071Z,99470.75
2022-09-16T08:28:04.954Z,99457.28
2022-09-16T08:29:09.815Z,99471.78
2022-09-16T08:30:13.267Z,99464.19
2022-09-16T08:31:18.284Z,99465.84
2022-09-16T08:32:21.830Z,99462.53
2022-09-16T08:33:26.281Z,99447.72
2022-09-16T08:34:29.074Z,99458.94
2022-09-16T08:35:32.129Z,99451.00
2022-09-16T08:36:35.050Z,99464.25
2022-09-16T08:37:38.067Z,99453.88
2022-09-16T08:38:43.952Z,99456.38
2022-09-16T08:39:49.660Z,99449.13
2022-09-16T08:41:05.180Z,99450.22
2022-09-16T08:42:45.164Z,99465.75
2022-09-16T08:44:05.862Z,99453.78
2022-09-16T08:45:31.435Z,99452.41
2022-09-16T08:46:40.115Z,99450.22
2022-09-16T08:48:39.979Z,99457.69
2022-09-16T08:49:51.168Z,99454.22
2022-09-16T08:50:55.030Z,99457.47
2022-09-16T08:52:02.007Z,99458.19
2022-09-16T08:53:14.910Z,99463.66
2022-09-16T08:54:49.940Z,99456.25
2022-09-16T08:55:53.703Z,99444.06
2022-09-16T08:57:03.427Z,99457.09
2022-09-16T08:58:13.735Z,99463.66
2022-09-16T08:59:25.092Z,99461.38
2022-09-16T09:00:28.434Z,99461.69
2022-09-16T09:02:12.972Z,99470.22
2022-09-16T09:03:37.811Z,99459.47
2022-09-16T09:04:41.013Z,99460.34
2022-09-16T09:05:51.730Z,99433.91
2022-09-16T09:07:08.132Z,99459.31
2022-09-16T09:08:22.327Z,99458.94
2022-09-16T09:09:40.323Z,99466.34
2022-09-16T09:10:52.012Z,99463.03
2022-09-16T09:12:11.955Z,99474.47
2022-09-16T09:13:33.743Z,99459.16
2022-09-16T09:15:28.017Z,99455.66
2022-09-16T09:17:02.307Z,99472.06
2022-09-16T09:18:33.952Z,99454.06
2022-09-16T09:20:07.089Z,99451.28
2022-09-16T09:21:32.797Z,99461.50
2022-09-16T09:22:59.996Z,99454.56
2022-09-16T09:24:17.835Z,99446.81
2022-09-16T09:25:56.951Z,99446.94
2022-09-16T09:27:31.011Z,99462.16
2022-09-16T09:28:39.347Z,99459.63
2022-09-16T09:29:57.055Z,99454.81
2022-09-16T09:31:18.634Z,99467.31
2022-09-16T09:32:59.151Z,99469.25
2022-09-16T09:34:23.040Z,99480.72
2022-09-16T09:36:05.518Z,99481.25
2022-09-16T09:38:02.942Z,99484.16
2022-09-16T09:39:16.461Z,99461.81
2022-09-16T09:40:23.646Z,99471.09
2022-09-16T09:41:54.724Z,99463.19
2022-09-16T09:43:19.309Z,99462.38
2022-09-16T09:44:52.804Z,99470.81
2022-09-16T09:46:31.655Z,99472.50
2022-09-16T09:47:44.074Z,99470.53
2022-09-16T09:49:27.851Z,99479.69
2022-09-16T09:50:36.448Z,99466.22
2022-09-16T09:51:45.816Z,99459.84
2022-09-16T09:53:11.193Z,99460.66
2022-09-16T09:54:30.466Z,99471.47
2022-09-16T09:55:35.459Z,99468.13
2022-09-16T09:56:45.757Z,99449.75
2022-09-16T09:58:19.258Z,99476.78
2022-09-16T09:59:45.642Z,99468.88
2022-09-16T10:00:48.714Z,99458.41
2022-09-16T10:02:00.562Z,99463.91
2022-09-16T10:03:12.492Z,99453.19
2022-09-16T10:04:16.306Z,99464.91
2022-09-16T10:05:27.492Z,99450.78
2022-09-16T10:06:35.721Z,99452.06
2022-09-16T10:07:39.327Z,99473.28
2022-09-16T10:08:54.340Z,99461.97
2022-09-16T10:10:04.044Z,99470.81
2022-09-16T10:11:21.782Z,99470.59
2022-09-16T10:12:35.122Z,99457.84
2022-09-16T10:13:53.759Z,99448.31
2022-09-16T10:14:57.028Z,99449.31
2022-09-16T10:16:21.570Z,99443.25
2022-09-16T10:17:27.789Z,99461.69
2022-09-16T10:18:33.576Z,99456.53
2022-09-16T10:19:58.076Z,99448.44
2022-09-16T10:21:07.794Z,99459.88
2022-09-16T10:22:19.205Z,99451.34
2022-09-16T10:23:29.782Z,99462.13
2022-09-16T10:24:43.343Z,99457.97
2022-09-16T10:25:46.886Z,99451.75
2022-09-16T10:26:49.979Z,99463.41
2022-09-16T10:28:02.763Z,99454.06
2022-09-16T10:29:19.616Z,99454.81
2022-09-16T10:31:34.245Z,99456.09
2022-09-16T10:33:00.158Z,99471.69
2022-09-16T10:34:21.971Z,99467.53
2022-09-16T10:35:34.722Z,99464.81
2022-09-16T10:36:38.139Z,99461.84
2022-09-16T10:38:16.047Z,99464.88
2022-09-16T10:39:27.431Z,99471.81
2022-09-16T10:40:32.064Z,99465.69
2022-09-16T10:41:45.857Z,99467.28
2022-09-16T10:42:50.766Z,99465.53
2022-09-16T10:44:26.719Z,99483.44
2022-09-16T10:45:35.106Z,99462.69
2022-09-16T10:46:38.554Z,99480.09
2022-09-16T10:47:48.650Z,99477.88
2022-09-16T10:48:54.303Z,99479.94
2022-09-16T10:50:05.113Z,99473.16
2022-09-16T10:51:31.125Z,99472.06
2022-09-16T10:52:47.008Z,99487.81
2022-09-16T10:54:02.627Z,99484.28
2022-09-16T10:55:27.761Z,99476.34
2022-09-16T10:56:35.359Z,99472.63
2022-09-16T10:57:41.943Z,99474.06
2022-09-16T10:58:45.067Z,99466.59
2022-09-16T11:00:08.986Z,99484.69
2022-09-16T11:01:45.460Z,99475.00
2022-09-16T11:03:23.754Z,99465.13
2022-09-16T11:05:06.095Z,99474.16
2022-09-16T11:06:40.401Z,99483.50
2022-09-16T11:07:58.749Z,99474.13
2022-09-16T11:09:41.183Z,99473.75
2022-09-16T11:11:20.964Z,99475.66
2022-09-16T11:12:50.594Z,99485.78
2022-09-16T11:14:36.213Z,99484.59
2022-09-16T11:16:16.267Z,99487.53
2022-09-16T11:17:40.449Z,99472.09
2022-09-16T11:19:06.222Z,99478.03
2022-09-16T11:21:06.192Z,99467.53
2022-09-16T11:22:38.236Z,99463.00
2022-09-16T11:24:16.899Z,99455.41
2022-09-16T11:26:02.646Z,99466.44
2022-09-16T11:27:08.317Z,99451.28
2022-09-16T11:28:26.008Z,99467.13
2022-09-16T11:29:48.008Z,99456.50
2022-09-16T11:31:17.906Z,99456.03
2022-09-16T11:34:56.121Z,99457.78
2022-09-16T11:36:32.624Z,99470.47
2022-09-16T11:37:56.203Z,99464.66
2022-09-16T11:39:46.669Z,99458.94
2022-09-16T11:41:49.208Z,99463.53
2022-09-16T11:43:19.785Z,99452.81
2022-09-16T11:44:37.743Z,99449.81
2022-09-16T11:46:05.492Z,99452.59
2022-09-16T11:47:48.503Z,99454.22
2022-09-16T11:49:21.813Z,99459.34
2022-09-16T11:51:04.299Z,99446.56
2022-09-16T11:52:30.642Z,99437.22
2022-09-16T11:54:19.985Z,99457.38
2022-09-16T11:55:50.647Z,99459.97
2022-09-16T11:56:57.735Z,99457.88
2022-09-16T11:58:38.378Z,99460.03
2022-09-16T11:59:54.676Z,99456.22
2022-09-16T12:01:03.968Z,99463.56
2022-09-16T12:02:42.216Z,99471.31
2022-09-16T12:03:59.094Z,99465.19
2022-09-16T12:05:16.178Z,99472.13
2022-09-16T12:06:25.126Z,99464.38
2022-09-16T12:08:02.469Z,99456.31
2022-09-16T12:09:20.491Z,99461.16
2022-09-16T12:11:04.084Z,99471.91
2022-09-16T12:12:18.773Z,99461.09
2022-09-16T12:13:40.584Z,99457.38
2022-09-16T12:14:55.035Z,99459.81
2022-09-16T12:16:14.802Z,99462.41
2022-09-16T12:17:35.820Z,99462.66
2022-09-16T12:18:51.678Z,99459.25
2022-09-16T12:20:13.718Z,99453.28
2022-09-16T12:21:31.154Z,99454.34
2022-09-16T12:22:49.163Z,99453.09
2022-09-16T12:24:04.472Z,99453.16
2022-09-16T12:25:17.580Z,99446.97
2022-09-16T12:26:26.440Z,99451.47
2022-09-16T12:27:52.468Z,99449.63
2022-09-16T12:29:37.659Z,99448.31
2022-09-16T12:30:47.688Z,99446.41
2022-09-16T12:31:59.437Z,99459.66
2022-09-16T12:33:24.611Z,99451.38
2022-09-16T12:34:49.583Z,99447.25
2022-09-16T12:36:06.960Z,99456.22
2022-09-16T12:37:36.566Z,99444.31
2022-09-16T12:38:40.337Z,99434.41
2022-09-16T12:39:43.795Z,99442.19
2022-09-16T12:41:17.186Z,99436.38
2022-09-16T12:43:02.609Z,99452.22
2022-09-16T12:44:54.045Z,99438.78
2022-09-16T12:46:37.133Z,99445.00
2022-09-16T12:48:32.666Z,99442.31
2022-09-16T12:50:19.772Z,99443.81
2022-09-16T12:52:09.738Z,99446.94
2022-09-16T12:53:40.980Z,99439.09
2022-09-16T12:55:09.261Z,99440.03
2022-09-16T12:56:27.391Z,99433.84
2022-09-16T12:57:39.956Z,99426.69
2022-09-16T12:59:13.611Z,99433.66
2022-09-16T13:00:27.407Z,99430.19
2022-09-16T13:01:42.791Z,99436.50
2022-09-16T13:02:59.556Z,99432.22
2022-09-16T13:04:22.621Z,99435.56
2022-09-16T13:05:39.427Z,99428.63
2022-09-16T13:06:52.018Z,99438.16
2022-09-16T13:08:00.809Z,99429.94
2022-09-16T13:09:38.440Z,99433.25
2022-09-16T13:11:19.967Z,99430.72
2022-09-16T13:12:39.309Z,99429.03
2022-09-16T13:13:56.749Z,99423.69
2022-09-16T13:15:05.701Z,99423.88
2022-09-16T13:16:09.719Z,99431.50
2022-09-16T13:17:13.009Z,99431.25
2022-09-16T13:18:18.574Z,99433.25
2022-09-16T13:19:53.166Z,99422.72
2022-09-16T13:21:05.740Z,99437.50
2022-09-16T13:22:15.538Z,99433.66
2022-09-16T13:23:34.179Z,99425.59
2022-09-16T13:24:42.580Z,99425.00
2022-09-16T13:26:08.506Z,99428.19
2022-09-16T13:27:29.844Z,99425.59
2022-09-16T13:28:32.587Z,99429.34
2022-09-16T13:29:38.384Z,99429.72
2022-09-16T13:30:41.588Z,99434.28
2022-09-16T13:31:49.262Z,99423.00
2022-09-16T13:32:52.213Z,99426.16
2022-09-16T13:33:57.680Z,99415.88
2022-09-16T13:35:05.530Z,99424.16
2022-09-16T13:36:20.192Z,99420.34
2022-09-16T13:37:27.210Z,99429.91
2022-09-16T13:38:39.925Z,99431.56
2022-09-16T13:39:44.425Z,99424.91
2022-09-16T13:41:13.426Z,99425.34
2022-09-16T13:42:21.813Z,99409.75
2022-09-16T13:43:43.051Z,99434.66
2022-09-16T13:44:46.142Z,99426.53
2022-09-16T13:45:49.076Z,99424.97
2022-09-16T13:46:52.328Z,99432.50
2022-09-16T13:47:55.363Z,99425.09
2022-09-16T13:49:05.164Z,99427.06
2022-09-16T13:50:16.291Z,99422.88
2022-09-16T13:51:22.443Z,99431.75
2022-09-16T13:52:30.778Z,99432.78
2022-09-16T13:53:37.543Z,99430.75
2022-09-16T13:55:17.079Z,99425.81
2022-09-16T13:56:57.166Z,99423.41
2022-09-16T13:58:30.932Z,99425.47
2022-09-16T14:01:42.196Z,99419.00
2022-09-16T14:03:21.378Z,99417.19
2022-09-16T14:04:41.233Z,99423.88
2022-09-16T14:06:12.709Z,99418.19
2022-09-16T14:07:31.682Z,99418.56
2022-09-16T14:09:16.698Z,99409.56
2022-09-16T14:11:08.847Z,99421.38
2022-09-16T14:12:33.071Z,99417.88
2022-09-16T14:13:50.549Z,99418.03
2022-09-16T14:14:53.702Z,99416.66
2022-09-16T14:15:59.301Z,99413.91
2022-09-16T14:17:19.485Z,99417.44
2022-09-16T14:18:29.153Z,99413.41
2022-09-16T14:19:38.570Z,99421.38
2022-09-16T14:21:19.539Z,99420.00
2022-09-16T14:22:25.662Z,99415.13